UAE707 OMDB-FSIA
Flight info
| Callsign | UAE707 |
|---|---|
| Flight time | N/A |
| Altitude | 34000 |
| Route | ANVIX R401 GIDIS G783 UKRAG/N0488F330 L710 DEDSO/N0489F340 R401 SUHIL UM314 IMTIP DCT EPNOR T144 ROUTY ROUTY1D |
| Aircraft | B77W/H-SDE1E2E3FGHIJ2J3J4J5M1RWXY/LB1D1 |
Departure
| Time | N/A |
|---|---|
| Airport | Dubai International Airport (OMDB) |
Arrival
| Time | 2026-04-23 13:57 |
|---|---|
| Airport | Seychelles International Airport (FSIA) |
| Time | Latitude | Longitude | Altitude | Speed | Heading |
|---|---|---|---|---|---|
| 2026-04-23 10:57 | 19.49431 | 55.99836 | 33884 ft | 504 kts | 184° |
| 2026-04-23 10:57 | 19.42385 | 56.00011 | 33878 ft | 504 kts | 184° |
| 2026-04-23 10:58 | 19.35304 | 56.00187 | 33875 ft | 506 kts | 184° |
| 2026-04-23 10:58 | 19.28202 | 56.00364 | 33869 ft | 506 kts | 184° |
| 2026-04-23 10:59 | 19.21104 | 56.00540 | 33871 ft | 507 kts | 184° |
| 2026-04-23 10:59 | 19.14062 | 56.00715 | 33871 ft | 507 kts | 184° |
| 2026-04-23 11:00 | 19.06962 | 56.00891 | 33872 ft | 508 kts | 184° |
| 2026-04-23 11:00 | 18.99920 | 56.01060 | 33871 ft | 507 kts | 185° |
| 2026-04-23 11:01 | 18.92983 | 56.00068 | 33878 ft | 497 kts | 199° |
| 2026-04-23 11:01 | 18.86301 | 55.98293 | 33868 ft | 497 kts | 200° |
| 2026-04-23 11:02 | 18.79593 | 55.96500 | 33869 ft | 495 kts | 200° |
| 2026-04-23 11:02 | 18.72904 | 55.94715 | 33868 ft | 495 kts | 200° |
| 2026-04-23 11:03 | 18.66184 | 55.92923 | 33873 ft | 496 kts | 200° |
| 2026-04-23 11:03 | 18.59493 | 55.91141 | 33871 ft | 496 kts | 200° |
| 2026-04-23 11:04 | 18.52774 | 55.89354 | 33876 ft | 494 kts | 200° |
| 2026-04-23 11:04 | 18.46121 | 55.87585 | 33876 ft | 493 kts | 200° |
| 2026-04-23 11:05 | 18.39427 | 55.85807 | 33885 ft | 495 kts | 200° |
| 2026-04-23 11:05 | 18.32741 | 55.84032 | 33885 ft | 497 kts | 200° |
| 2026-04-23 11:06 | 18.22618 | 55.81348 | 33889 ft | 497 kts | 200° |
| 2026-04-23 11:07 | 18.15956 | 55.79584 | 33887 ft | 494 kts | 200° |
| 2026-04-23 11:07 | 18.09242 | 55.77807 | 33890 ft | 493 kts | 200° |
| 2026-04-23 11:08 | 18.02598 | 55.76051 | 33893 ft | 493 kts | 201° |
| 2026-04-23 11:08 | 17.95789 | 55.74593 | 33900 ft | 500 kts | 193° |
| 2026-04-23 11:09 | 17.88896 | 55.73708 | 33876 ft | 502 kts | 193° |
| 2026-04-23 11:09 | 17.81912 | 55.72819 | 33856 ft | 503 kts | 193° |
| 2026-04-23 11:10 | 17.74994 | 55.71937 | 33841 ft | 500 kts | 193° |
| 2026-04-23 11:10 | 17.68049 | 55.71049 | 33844 ft | 502 kts | 193° |
| 2026-04-23 11:11 | 17.61109 | 55.70163 | 33839 ft | 502 kts | 193° |
| 2026-04-23 11:11 | 17.54121 | 55.69270 | 33843 ft | 504 kts | 193° |
| 2026-04-23 11:12 | 17.47207 | 55.68388 | 33834 ft | 500 kts | 193° |
| 2026-04-23 11:12 | 17.40286 | 55.67504 | 33837 ft | 504 kts | 193° |
| 2026-04-23 11:13 | 17.33299 | 55.66613 | 33835 ft | 501 kts | 192° |
| 2026-04-23 11:13 | 17.26392 | 55.65734 | 33835 ft | 501 kts | 193° |
| 2026-04-23 11:14 | 17.19428 | 55.64847 | 33842 ft | 501 kts | 193° |
| 2026-04-23 11:14 | 17.12471 | 55.63961 | 33840 ft | 503 kts | 193° |
| 2026-04-23 11:15 | 17.05538 | 55.63079 | 33842 ft | 503 kts | 192° |
| 2026-04-23 11:15 | 16.98596 | 55.62198 | 33845 ft | 503 kts | 193° |
| 2026-04-23 11:16 | 16.91639 | 55.61315 | 33845 ft | 501 kts | 193° |
| 2026-04-23 11:16 | 16.84706 | 55.60439 | 33839 ft | 505 kts | 192° |
| 2026-04-23 11:17 | 16.77728 | 55.59567 | 33836 ft | 501 kts | 192° |
| 2026-04-23 11:17 | 16.70791 | 55.58699 | 33840 ft | 502 kts | 192° |
| 2026-04-23 11:18 | 16.63827 | 55.57829 | 33839 ft | 501 kts | 192° |
| 2026-04-23 11:18 | 16.56876 | 55.56961 | 33840 ft | 502 kts | 193° |
| 2026-04-23 11:19 | 16.49906 | 55.56091 | 33842 ft | 501 kts | 193° |
| 2026-04-23 11:19 | 16.42986 | 55.55228 | 33843 ft | 502 kts | 193° |
| 2026-04-23 11:20 | 16.36006 | 55.54357 | 33844 ft | 503 kts | 193° |
| 2026-04-23 11:20 | 16.29059 | 55.53493 | 33849 ft | 502 kts | 192° |
| 2026-04-23 11:21 | 16.22108 | 55.52627 | 33853 ft | 503 kts | 192° |
| 2026-04-23 11:21 | 16.15133 | 55.51759 | 33865 ft | 505 kts | 192° |
| 2026-04-23 11:22 | 16.08125 | 55.50888 | 33863 ft | 504 kts | 192° |
| 2026-04-23 11:22 | 16.01185 | 55.50027 | 33865 ft | 503 kts | 192° |
| 2026-04-23 11:23 | 15.94242 | 55.49165 | 33866 ft | 503 kts | 192° |
| 2026-04-23 11:23 | 15.87236 | 55.48296 | 33857 ft | 503 kts | 192° |
| 2026-04-23 11:24 | 15.80276 | 55.47434 | 33856 ft | 503 kts | 192° |
| 2026-04-23 11:24 | 15.73303 | 55.46570 | 33858 ft | 503 kts | 193° |
| 2026-04-23 11:25 | 15.66361 | 55.45711 | 33857 ft | 503 kts | 193° |
| 2026-04-23 11:25 | 15.59398 | 55.44850 | 33860 ft | 503 kts | 193° |
| 2026-04-23 11:26 | 15.52433 | 55.43988 | 33861 ft | 503 kts | 193° |
| 2026-04-23 11:26 | 15.45484 | 55.43131 | 33857 ft | 503 kts | 193° |
| 2026-04-23 11:27 | 15.38491 | 55.42267 | 33861 ft | 504 kts | 193° |
| 2026-04-23 11:27 | 15.31535 | 55.41409 | 33862 ft | 504 kts | 193° |
| 2026-04-23 11:28 | 15.24555 | 55.40549 | 33860 ft | 503 kts | 193° |
| 2026-04-23 11:28 | 15.17561 | 55.39686 | 33856 ft | 505 kts | 193° |
| 2026-04-23 11:29 | 15.10609 | 55.38816 | 33853 ft | 504 kts | 193° |
| 2026-04-23 11:29 | 15.03598 | 55.37937 | 33848 ft | 503 kts | 193° |
| 2026-04-23 11:30 | 14.96637 | 55.37064 | 33851 ft | 506 kts | 193° |
| 2026-04-23 11:30 | 14.89654 | 55.36192 | 33852 ft | 503 kts | 193° |
| 2026-04-23 11:31 | 14.82725 | 55.35326 | 33842 ft | 503 kts | 193° |
| 2026-04-23 11:31 | 14.75724 | 55.34450 | 33849 ft | 506 kts | 193° |
| 2026-04-23 11:32 | 14.68727 | 55.33577 | 33849 ft | 503 kts | 192° |
| 2026-04-23 11:32 | 14.61746 | 55.32706 | 33848 ft | 505 kts | 192° |
| 2026-04-23 11:33 | 14.54773 | 55.31837 | 33853 ft | 504 kts | 193° |
| 2026-04-23 11:33 | 14.47790 | 55.30968 | 33852 ft | 503 kts | 192° |
| 2026-04-23 11:34 | 14.40823 | 55.30100 | 33849 ft | 505 kts | 192° |
| 2026-04-23 11:34 | 14.33866 | 55.29234 | 33853 ft | 503 kts | 192° |
| 2026-04-23 11:35 | 14.26895 | 55.28367 | 33854 ft | 504 kts | 192° |
| 2026-04-23 11:35 | 14.19889 | 55.27496 | 33852 ft | 504 kts | 192° |
| 2026-04-23 11:36 | 14.12944 | 55.26634 | 33854 ft | 505 kts | 192° |
| 2026-04-23 11:36 | 14.05910 | 55.25761 | 33851 ft | 503 kts | 192° |
| 2026-04-23 11:37 | 13.98951 | 55.24898 | 33854 ft | 505 kts | 192° |
| 2026-04-23 11:37 | 13.91972 | 55.24033 | 33857 ft | 504 kts | 192° |
| 2026-04-23 11:38 | 13.84976 | 55.23157 | 33843 ft | 501 kts | 192° |
| 2026-04-23 11:38 | 13.78041 | 55.22281 | 33851 ft | 504 kts | 192° |
| 2026-04-23 11:39 | 13.71060 | 55.21401 | 33846 ft | 502 kts | 192° |
| 2026-04-23 11:39 | 13.64105 | 55.20524 | 33853 ft | 503 kts | 192° |
| 2026-04-23 11:40 | 13.57149 | 55.19649 | 33857 ft | 502 kts | 192° |
| 2026-04-23 11:40 | 13.50221 | 55.18777 | 33860 ft | 502 kts | 192° |
| 2026-04-23 11:41 | 13.43264 | 55.17902 | 33858 ft | 502 kts | 192° |
| 2026-04-23 11:41 | 13.36323 | 55.17030 | 33860 ft | 502 kts | 192° |
| 2026-04-23 11:42 | 13.29400 | 55.16161 | 33860 ft | 502 kts | 192° |
| 2026-04-23 11:42 | 13.22451 | 55.15288 | 33855 ft | 504 kts | 192° |
| 2026-04-23 11:43 | 13.15503 | 55.14417 | 33854 ft | 502 kts | 192° |
| 2026-04-23 11:43 | 13.08544 | 55.13545 | 33849 ft | 502 kts | 192° |
| 2026-04-23 11:44 | 13.01580 | 55.12672 | 33853 ft | 501 kts | 192° |
| 2026-04-23 11:44 | 12.94644 | 55.11804 | 33853 ft | 500 kts | 192° |
| 2026-04-23 11:45 | 12.87745 | 55.10941 | 33845 ft | 500 kts | 192° |
| 2026-04-23 11:45 | 12.80798 | 55.10072 | 33846 ft | 501 kts | 192° |
| 2026-04-23 11:46 | 12.73886 | 55.09208 | 33849 ft | 500 kts | 192° |
| 2026-04-23 11:46 | 12.66944 | 55.08340 | 33847 ft | 500 kts | 192° |
| 2026-04-23 11:47 | 12.60010 | 55.07474 | 33849 ft | 501 kts | 192° |
| 2026-04-23 11:47 | 12.53088 | 55.06611 | 33849 ft | 500 kts | 192° |
| 2026-04-23 11:48 | 12.46181 | 55.05749 | 33848 ft | 501 kts | 191° |
| 2026-04-23 11:48 | 12.39243 | 55.04884 | 33849 ft | 500 kts | 192° |
| 2026-04-23 11:49 | 12.32327 | 55.04022 | 33851 ft | 499 kts | 191° |
| 2026-04-23 11:49 | 12.25380 | 55.03157 | 33851 ft | 500 kts | 191° |
| 2026-04-23 11:50 | 12.18484 | 55.02298 | 33850 ft | 500 kts | 191° |
| 2026-04-23 11:50 | 12.11539 | 55.01435 | 33851 ft | 500 kts | 191° |
| 2026-04-23 11:51 | 12.04604 | 55.00572 | 33851 ft | 500 kts | 191° |
| 2026-04-23 11:51 | 11.97646 | 54.99990 | 33858 ft | 502 kts | 184° |
| 2026-04-23 11:52 | 11.90608 | 54.99987 | 33851 ft | 503 kts | 184° |
| 2026-04-23 11:52 | 11.83603 | 54.99993 | 33845 ft | 503 kts | 184° |
| 2026-04-23 11:53 | 11.76554 | 54.99996 | 33844 ft | 504 kts | 184° |
| 2026-04-23 11:53 | 11.69571 | 54.99998 | 33845 ft | 503 kts | 184° |
| 2026-04-23 11:54 | 11.62554 | 54.99999 | 33840 ft | 502 kts | 184° |
| 2026-04-23 11:54 | 11.55531 | 54.99999 | 33833 ft | 504 kts | 184° |
| 2026-04-23 11:55 | 11.48503 | 55.00000 | 33826 ft | 503 kts | 184° |
| 2026-04-23 11:55 | 11.41485 | 55.00000 | 33827 ft | 503 kts | 184° |
| 2026-04-23 11:56 | 11.34426 | 55.00000 | 33827 ft | 503 kts | 184° |
| 2026-04-23 11:56 | 11.27457 | 55.00000 | 33827 ft | 501 kts | 184° |
| 2026-04-23 11:57 | 11.20432 | 55.00000 | 33828 ft | 502 kts | 184° |
| 2026-04-23 11:57 | 11.13461 | 55.00000 | 33829 ft | 503 kts | 184° |
| 2026-04-23 11:58 | 11.06447 | 55.00000 | 33834 ft | 503 kts | 184° |
| 2026-04-23 11:58 | 10.99423 | 55.00000 | 33846 ft | 502 kts | 184° |
| 2026-04-23 11:59 | 10.92428 | 55.00000 | 33849 ft | 502 kts | 184° |
| 2026-04-23 11:59 | 10.85404 | 55.00000 | 33846 ft | 501 kts | 184° |
| 2026-04-23 12:00 | 10.78428 | 55.00000 | 33846 ft | 501 kts | 184° |
| 2026-04-23 12:00 | 10.71426 | 55.00000 | 33848 ft | 502 kts | 184° |
| 2026-04-23 12:01 | 10.64417 | 55.00000 | 33846 ft | 503 kts | 184° |
| 2026-04-23 12:01 | 10.57399 | 55.00000 | 33845 ft | 502 kts | 184° |
| 2026-04-23 12:02 | 10.50402 | 55.00000 | 33848 ft | 502 kts | 184° |
| 2026-04-23 12:02 | 10.43401 | 55.00000 | 33847 ft | 502 kts | 184° |
| 2026-04-23 12:03 | 10.36403 | 55.00000 | 33849 ft | 502 kts | 184° |
| 2026-04-23 12:03 | 10.29423 | 55.00000 | 33848 ft | 502 kts | 184° |
| 2026-04-23 12:04 | 10.22460 | 55.00000 | 33848 ft | 501 kts | 184° |
| 2026-04-23 12:04 | 10.15442 | 55.00000 | 33848 ft | 501 kts | 184° |
| 2026-04-23 12:05 | 10.08432 | 55.00000 | 33850 ft | 500 kts | 184° |
| 2026-04-23 12:05 | 10.01482 | 55.00000 | 33851 ft | 501 kts | 184° |
| 2026-04-23 12:06 | 9.94465 | 55.00000 | 33850 ft | 501 kts | 184° |
| 2026-04-23 12:06 | 9.84004 | 55.00000 | 33847 ft | 500 kts | 184° |
| 2026-04-23 12:07 | 9.76985 | 55.00000 | 33847 ft | 501 kts | 184° |
| 2026-04-23 12:07 | 9.70009 | 55.00000 | 33846 ft | 501 kts | 184° |
| 2026-04-23 12:08 | 9.63015 | 55.00000 | 33848 ft | 501 kts | 184° |
| 2026-04-23 12:08 | 9.56014 | 55.00000 | 33847 ft | 502 kts | 184° |
| 2026-04-23 12:09 | 9.48989 | 55.00000 | 33848 ft | 501 kts | 184° |
| 2026-04-23 12:09 | 9.42020 | 55.00000 | 33849 ft | 501 kts | 184° |
| 2026-04-23 12:10 | 9.35036 | 55.00000 | 33849 ft | 501 kts | 184° |
| 2026-04-23 12:10 | 9.28036 | 55.00000 | 33850 ft | 501 kts | 184° |
| 2026-04-23 12:11 | 9.21030 | 55.00000 | 33850 ft | 502 kts | 184° |
| 2026-04-23 12:11 | 9.14059 | 55.00000 | 33849 ft | 500 kts | 184° |
| 2026-04-23 12:12 | 9.07111 | 55.00000 | 33850 ft | 501 kts | 184° |
| 2026-04-23 12:12 | 9.00117 | 55.00000 | 33851 ft | 501 kts | 184° |
| 2026-04-23 12:13 | 8.93129 | 55.00000 | 33836 ft | 500 kts | 184° |
| 2026-04-23 12:13 | 8.86154 | 55.00000 | 33824 ft | 500 kts | 184° |
| 2026-04-23 12:14 | 8.79146 | 55.00000 | 33825 ft | 501 kts | 184° |
| 2026-04-23 12:14 | 8.72156 | 55.00000 | 33825 ft | 501 kts | 184° |
| 2026-04-23 12:15 | 8.65167 | 55.00000 | 33823 ft | 501 kts | 184° |
| 2026-04-23 12:15 | 8.58183 | 55.00000 | 33826 ft | 501 kts | 184° |
| 2026-04-23 12:16 | 8.51209 | 55.00000 | 33825 ft | 500 kts | 184° |
| 2026-04-23 12:16 | 8.44201 | 55.00000 | 33825 ft | 502 kts | 184° |
| 2026-04-23 12:17 | 8.37198 | 55.00000 | 33825 ft | 501 kts | 184° |
| 2026-04-23 12:17 | 8.30213 | 55.00000 | 33830 ft | 502 kts | 184° |
| 2026-04-23 12:18 | 8.23230 | 55.00000 | 33831 ft | 501 kts | 184° |
| 2026-04-23 12:18 | 8.16214 | 55.00000 | 33826 ft | 500 kts | 184° |
| 2026-04-23 12:19 | 8.09275 | 55.00000 | 33828 ft | 500 kts | 184° |
| 2026-04-23 12:19 | 8.02279 | 55.00000 | 33828 ft | 501 kts | 184° |
| 2026-04-23 12:20 | 7.95277 | 55.00000 | 33833 ft | 501 kts | 183° |
| 2026-04-23 12:20 | 7.88312 | 55.00000 | 33825 ft | 502 kts | 184° |
| 2026-04-23 12:21 | 7.81307 | 55.00000 | 33828 ft | 501 kts | 183° |
| 2026-04-23 12:21 | 7.74324 | 55.00000 | 33827 ft | 500 kts | 184° |
| 2026-04-23 12:22 | 7.67326 | 55.00000 | 33829 ft | 499 kts | 183° |
| 2026-04-23 12:22 | 7.60380 | 55.00000 | 33828 ft | 499 kts | 183° |
| 2026-04-23 12:23 | 7.53423 | 55.00000 | 33828 ft | 500 kts | 183° |
| 2026-04-23 12:23 | 7.46433 | 55.00000 | 33828 ft | 500 kts | 183° |
| 2026-04-23 12:24 | 7.39450 | 55.00000 | 33833 ft | 500 kts | 183° |
| 2026-04-23 12:24 | 7.32503 | 55.00000 | 33831 ft | 500 kts | 183° |
| 2026-04-23 12:25 | 7.25509 | 55.00000 | 33834 ft | 498 kts | 183° |
| 2026-04-23 12:25 | 7.18589 | 55.00000 | 33836 ft | 498 kts | 183° |
| 2026-04-23 12:26 | 7.11613 | 55.00000 | 33826 ft | 497 kts | 183° |
| 2026-04-23 12:26 | 7.04683 | 55.00000 | 33827 ft | 499 kts | 183° |
| 2026-04-23 12:27 | 6.97724 | 55.00000 | 33818 ft | 498 kts | 183° |
| 2026-04-23 12:27 | 6.90792 | 55.00000 | 33809 ft | 498 kts | 183° |
| 2026-04-23 12:28 | 6.83827 | 55.00000 | 33803 ft | 497 kts | 182° |
| 2026-04-23 12:28 | 6.76878 | 55.00000 | 33805 ft | 497 kts | 182° |
| 2026-04-23 12:29 | 6.69957 | 55.00000 | 33811 ft | 498 kts | 182° |
| 2026-04-23 12:29 | 6.63008 | 55.00000 | 33817 ft | 498 kts | 182° |
| 2026-04-23 12:30 | 6.56037 | 55.00000 | 33820 ft | 498 kts | 182° |
| 2026-04-23 12:30 | 6.49111 | 55.00000 | 33816 ft | 498 kts | 182° |
| 2026-04-23 12:31 | 6.42172 | 55.00000 | 33816 ft | 497 kts | 182° |
| 2026-04-23 12:31 | 6.35222 | 55.00000 | 33815 ft | 496 kts | 182° |
| 2026-04-23 12:32 | 6.28275 | 55.00000 | 33814 ft | 497 kts | 182° |
| 2026-04-23 12:32 | 6.21368 | 55.00000 | 33813 ft | 497 kts | 182° |
| 2026-04-23 12:33 | 6.14417 | 55.00000 | 33820 ft | 497 kts | 182° |
| 2026-04-23 12:33 | 6.07489 | 55.00000 | 33829 ft | 497 kts | 182° |
| 2026-04-23 12:34 | 6.00522 | 55.00000 | 33827 ft | 497 kts | 182° |
| 2026-04-23 12:34 | 5.93587 | 55.00000 | 33828 ft | 496 kts | 182° |
| 2026-04-23 12:35 | 5.86680 | 55.00000 | 33826 ft | 497 kts | 182° |
| 2026-04-23 12:35 | 5.79732 | 55.00000 | 33825 ft | 496 kts | 182° |
| 2026-04-23 12:36 | 5.72793 | 55.00000 | 33826 ft | 497 kts | 182° |
| 2026-04-23 12:36 | 5.65893 | 55.00000 | 33827 ft | 497 kts | 182° |
| 2026-04-23 12:37 | 5.58920 | 55.00000 | 33826 ft | 495 kts | 182° |
| 2026-04-23 12:37 | 5.52016 | 55.00000 | 33827 ft | 497 kts | 182° |
| 2026-04-23 12:38 | 5.45108 | 55.00000 | 33827 ft | 496 kts | 182° |
| 2026-04-23 12:38 | 5.38187 | 55.00015 | 33819 ft | 495 kts | 179° |
| 2026-04-23 12:39 | 5.31285 | 55.00527 | 33829 ft | 498 kts | 177° |
| 2026-04-23 12:39 | 5.24351 | 55.01078 | 33828 ft | 496 kts | 177° |
| 2026-04-23 12:40 | 5.17440 | 55.01609 | 33829 ft | 498 kts | 177° |
| 2026-04-23 12:40 | 5.10558 | 55.02126 | 33828 ft | 499 kts | 178° |
| 2026-04-23 12:41 | 5.03600 | 55.02644 | 33817 ft | 496 kts | 178° |
| 2026-04-23 12:41 | 4.96690 | 55.03154 | 33808 ft | 495 kts | 178° |
| 2026-04-23 12:42 | 4.89789 | 55.03662 | 33809 ft | 497 kts | 178° |
| 2026-04-23 12:42 | 4.82887 | 55.04169 | 33805 ft | 497 kts | 178° |
| 2026-04-23 12:43 | 4.75969 | 55.04676 | 33806 ft | 497 kts | 178° |
| 2026-04-23 12:43 | 4.69029 | 55.05185 | 33806 ft | 499 kts | 178° |
| 2026-04-23 12:44 | 4.62143 | 55.05690 | 33806 ft | 496 kts | 178° |
| 2026-04-23 12:44 | 4.55217 | 55.06197 | 33806 ft | 497 kts | 178° |
| 2026-04-23 12:45 | 4.48311 | 55.06703 | 33807 ft | 497 kts | 178° |
| 2026-04-23 12:45 | 4.41397 | 55.07209 | 33808 ft | 497 kts | 178° |
| 2026-04-23 12:46 | 4.34501 | 55.07714 | 33815 ft | 497 kts | 178° |
| 2026-04-23 12:46 | 4.27576 | 55.08220 | 33820 ft | 497 kts | 178° |
| 2026-04-23 12:47 | 4.20651 | 55.08727 | 33825 ft | 496 kts | 177° |
| 2026-04-23 12:47 | 4.13743 | 55.09232 | 33825 ft | 497 kts | 177° |
| 2026-04-23 12:48 | 4.06843 | 55.09737 | 33827 ft | 497 kts | 177° |
| 2026-04-23 12:48 | 3.99897 | 55.10245 | 33824 ft | 498 kts | 177° |
| 2026-04-23 12:49 | 3.92974 | 55.10753 | 33828 ft | 497 kts | 177° |
| 2026-04-23 12:49 | 3.86097 | 55.11256 | 33822 ft | 497 kts | 177° |
| 2026-04-23 12:50 | 3.79164 | 55.11763 | 33821 ft | 497 kts | 177° |
| 2026-04-23 12:50 | 3.72236 | 55.12270 | 33820 ft | 498 kts | 177° |
| 2026-04-23 12:51 | 3.65318 | 55.12776 | 33822 ft | 498 kts | 177° |
| 2026-04-23 12:51 | 3.58375 | 55.13284 | 33827 ft | 498 kts | 177° |
| 2026-04-23 12:52 | 3.51455 | 55.13789 | 33825 ft | 498 kts | 177° |
| 2026-04-23 12:52 | 3.44522 | 55.14296 | 33826 ft | 498 kts | 177° |
| 2026-04-23 12:53 | 3.37594 | 55.14803 | 33822 ft | 498 kts | 177° |
| 2026-04-23 12:53 | 3.30653 | 55.15310 | 33816 ft | 500 kts | 177° |
| 2026-04-23 12:54 | 3.23732 | 55.15816 | 33815 ft | 498 kts | 177° |
| 2026-04-23 12:54 | 3.16796 | 55.16323 | 33812 ft | 499 kts | 177° |
| 2026-04-23 12:55 | 3.09847 | 55.16830 | 33811 ft | 499 kts | 177° |
| 2026-04-23 12:55 | 3.02928 | 55.17336 | 33809 ft | 498 kts | 177° |
| 2026-04-23 12:56 | 2.95985 | 55.17843 | 33809 ft | 499 kts | 177° |
| 2026-04-23 12:56 | 2.88999 | 55.18353 | 33808 ft | 499 kts | 177° |
| 2026-04-23 12:57 | 2.82064 | 55.18859 | 33805 ft | 499 kts | 177° |
| 2026-04-23 12:57 | 2.75150 | 55.19364 | 33806 ft | 498 kts | 177° |
| 2026-04-23 12:58 | 2.68221 | 55.19870 | 33806 ft | 499 kts | 177° |
| 2026-04-23 12:58 | 2.61278 | 55.20377 | 33807 ft | 498 kts | 177° |
| 2026-04-23 12:59 | 2.54321 | 55.20884 | 33806 ft | 499 kts | 177° |
| 2026-04-23 12:59 | 2.47405 | 55.21389 | 33807 ft | 499 kts | 177° |
| 2026-04-23 13:00 | 2.40461 | 55.21896 | 33807 ft | 499 kts | 177° |
| 2026-04-23 13:00 | 2.33479 | 55.22405 | 33807 ft | 499 kts | 177° |
| 2026-04-23 13:01 | 2.26531 | 55.22912 | 33808 ft | 498 kts | 177° |
| 2026-04-23 13:01 | 2.19602 | 55.23418 | 33808 ft | 498 kts | 177° |
| 2026-04-23 13:02 | 2.12712 | 55.23920 | 33809 ft | 498 kts | 177° |
| 2026-04-23 13:02 | 2.05762 | 55.24427 | 33809 ft | 498 kts | 177° |
| 2026-04-23 13:03 | 1.98868 | 55.24930 | 33810 ft | 498 kts | 176° |
| 2026-04-23 13:03 | 1.91914 | 55.25437 | 33812 ft | 499 kts | 176° |
| 2026-04-23 13:04 | 1.84982 | 55.25943 | 33806 ft | 497 kts | 177° |
| 2026-04-23 13:04 | 1.78053 | 55.26448 | 33809 ft | 497 kts | 177° |
| 2026-04-23 13:05 | 1.71132 | 55.26952 | 33804 ft | 498 kts | 177° |
| 2026-04-23 13:05 | 1.64221 | 55.27456 | 33808 ft | 498 kts | 177° |
| 2026-04-23 13:06 | 1.53799 | 55.28216 | 33806 ft | 498 kts | 176° |
| 2026-04-23 13:07 | 1.46882 | 55.28720 | 33815 ft | 498 kts | 176° |
| 2026-04-23 13:07 | 1.39936 | 55.29226 | 33824 ft | 498 kts | 176° |
| 2026-04-23 13:08 | 1.32997 | 55.29729 | 33821 ft | 498 kts | 178° |
| 2026-04-23 13:08 | 1.26084 | 55.29917 | 33813 ft | 498 kts | 180° |
| 2026-04-23 13:09 | 1.19146 | 55.30070 | 33812 ft | 498 kts | 180° |
| 2026-04-23 13:09 | 1.12177 | 55.30235 | 33808 ft | 498 kts | 180° |
| 2026-04-23 13:10 | 1.05216 | 55.30406 | 33810 ft | 498 kts | 180° |
| 2026-04-23 13:10 | 0.98301 | 55.30580 | 33811 ft | 498 kts | 179° |
| 2026-04-23 13:11 | 0.91315 | 55.30757 | 33810 ft | 498 kts | 179° |
| 2026-04-23 13:11 | 0.84391 | 55.30935 | 33805 ft | 498 kts | 179° |
| 2026-04-23 13:12 | 0.77465 | 55.31112 | 33806 ft | 499 kts | 179° |
| 2026-04-23 13:12 | 0.70487 | 55.31291 | 33806 ft | 499 kts | 180° |
| 2026-04-23 13:13 | 0.63519 | 55.31470 | 33806 ft | 498 kts | 179° |
| 2026-04-23 13:13 | 0.56568 | 55.31649 | 33807 ft | 498 kts | 179° |
| 2026-04-23 13:14 | 0.49651 | 55.31827 | 33807 ft | 498 kts | 179° |
| 2026-04-23 13:14 | 0.42685 | 55.32006 | 33808 ft | 498 kts | 179° |
| 2026-04-23 13:15 | 0.35752 | 55.32185 | 33808 ft | 499 kts | 179° |
| 2026-04-23 13:15 | 0.29958 | 55.32334 | 33807 ft | 499 kts | 179° |
| 2026-04-23 13:16 | 0.21833 | 55.32543 | 33808 ft | 499 kts | 179° |
| 2026-04-23 13:16 | 0.14884 | 55.32721 | 33808 ft | 498 kts | 179° |
| 2026-04-23 13:17 | 0.07920 | 55.32901 | 33809 ft | 498 kts | 179° |
| 2026-04-23 13:17 | 0.00996 | 55.33079 | 33808 ft | 499 kts | 179° |
| 2026-04-23 13:18 | -0.05985 | 55.33258 | 33815 ft | 499 kts | 179° |
| 2026-04-23 13:18 | -0.12935 | 55.33437 | 33816 ft | 500 kts | 179° |
| 2026-04-23 13:19 | -0.19906 | 55.33617 | 33818 ft | 498 kts | 179° |
| 2026-04-23 13:19 | -0.26875 | 55.33796 | 33823 ft | 499 kts | 179° |
| 2026-04-23 13:20 | -0.33831 | 55.33975 | 33827 ft | 499 kts | 179° |
| 2026-04-23 13:20 | -0.40775 | 55.34153 | 33824 ft | 499 kts | 179° |
| 2026-04-23 13:21 | -0.47757 | 55.34333 | 33822 ft | 499 kts | 179° |
| 2026-04-23 13:21 | -0.54705 | 55.34512 | 33817 ft | 499 kts | 179° |
| 2026-04-23 13:22 | -0.61654 | 55.34690 | 33811 ft | 500 kts | 179° |
| 2026-04-23 13:22 | -0.68632 | 55.34870 | 33807 ft | 499 kts | 179° |
| 2026-04-23 13:23 | -0.75600 | 55.35049 | 33807 ft | 499 kts | 179° |
| 2026-04-23 13:23 | -0.82551 | 55.35228 | 33807 ft | 498 kts | 179° |
| 2026-04-23 13:24 | -0.89490 | 55.35407 | 33808 ft | 499 kts | 179° |
| 2026-04-23 13:24 | -0.96451 | 55.35586 | 33806 ft | 498 kts | 179° |
| 2026-04-23 13:25 | -1.03415 | 55.35765 | 33810 ft | 500 kts | 179° |
| 2026-04-23 13:25 | -1.10367 | 55.35944 | 33810 ft | 501 kts | 179° |
| 2026-04-23 13:26 | -1.17395 | 55.36125 | 33805 ft | 501 kts | 179° |
| 2026-04-23 13:26 | -1.24349 | 55.36304 | 33806 ft | 500 kts | 179° |
| 2026-04-23 13:27 | -1.31313 | 55.36483 | 33806 ft | 501 kts | 179° |
| 2026-04-23 13:27 | -1.38324 | 55.36663 | 33806 ft | 500 kts | 179° |
| 2026-04-23 13:28 | -1.45297 | 55.36843 | 33806 ft | 501 kts | 179° |
| 2026-04-23 13:28 | -1.52261 | 55.37022 | 33808 ft | 500 kts | 179° |
| 2026-04-23 13:29 | -1.59289 | 55.37203 | 33807 ft | 501 kts | 179° |
| 2026-04-23 13:29 | -1.66261 | 55.37383 | 33808 ft | 501 kts | 179° |
| 2026-04-23 13:30 | -1.73229 | 55.37562 | 33808 ft | 501 kts | 179° |
| 2026-04-23 13:30 | -1.80235 | 55.37743 | 33809 ft | 502 kts | 179° |
| 2026-04-23 13:31 | -1.87225 | 55.37923 | 33815 ft | 503 kts | 179° |
| 2026-04-23 13:31 | -1.94267 | 55.38104 | 33824 ft | 501 kts | 179° |
| 2026-04-23 13:32 | -2.01236 | 55.38284 | 33830 ft | 503 kts | 179° |
| 2026-04-23 13:32 | -2.08225 | 55.38464 | 33834 ft | 502 kts | 179° |
| 2026-04-23 13:33 | -2.15243 | 55.38644 | 33824 ft | 502 kts | 179° |
| 2026-04-23 13:33 | -2.22246 | 55.38879 | 33826 ft | 503 kts | 179° |
| 2026-04-23 13:34 | -2.29300 | 55.39154 | 33824 ft | 503 kts | 179° |
| 2026-04-23 13:34 | -2.36290 | 55.39424 | 33824 ft | 502 kts | 179° |
| 2026-04-23 13:35 | -2.43295 | 55.39693 | 33820 ft | 502 kts | 179° |
| 2026-04-23 13:35 | -2.50287 | 55.39961 | 33813 ft | 502 kts | 179° |
| 2026-04-23 13:36 | -2.57298 | 55.40228 | 33813 ft | 503 kts | 179° |
| 2026-04-23 13:36 | -2.64313 | 55.40496 | 33808 ft | 502 kts | 179° |
| 2026-04-23 13:36 | -2.67770 | 55.40628 | 33432 ft | 497 kts | 179° |
| 2026-04-23 13:37 | -2.71264 | 55.40761 | 32515 ft | 500 kts | 179° |
| 2026-04-23 13:37 | -2.74753 | 55.40894 | 31711 ft | 502 kts | 179° |
| 2026-04-23 13:37 | -2.78249 | 55.41027 | 30902 ft | 505 kts | 179° |
| 2026-04-23 13:37 | -2.81757 | 55.41161 | 30237 ft | 503 kts | 179° |
| 2026-04-23 13:38 | -2.85237 | 55.41294 | 29786 ft | 497 kts | 179° |
| 2026-04-23 13:38 | -2.88675 | 55.41425 | 29293 ft | 492 kts | 179° |
| 2026-04-23 13:38 | -2.92079 | 55.41555 | 28765 ft | 488 kts | 178° |
| 2026-04-23 13:38 | -2.95494 | 55.41685 | 28232 ft | 485 kts | 178° |
| 2026-04-23 13:39 | -2.98834 | 55.41813 | 27704 ft | 481 kts | 178° |
| 2026-04-23 13:39 | -3.02189 | 55.41940 | 27166 ft | 478 kts | 178° |
| 2026-04-23 13:39 | -3.05522 | 55.42067 | 26631 ft | 475 kts | 178° |
| 2026-04-23 13:39 | -3.08792 | 55.42192 | 26096 ft | 473 kts | 178° |
| 2026-04-23 13:40 | -3.12101 | 55.42318 | 25551 ft | 470 kts | 178° |
| 2026-04-23 13:40 | -3.15355 | 55.42442 | 25009 ft | 467 kts | 178° |
| 2026-04-23 13:40 | -3.18611 | 55.42566 | 24467 ft | 464 kts | 178° |
| 2026-04-23 13:40 | -3.21832 | 55.42689 | 23930 ft | 462 kts | 178° |
| 2026-04-23 13:41 | -3.25052 | 55.42812 | 23385 ft | 460 kts | 178° |
| 2026-04-23 13:41 | -3.28238 | 55.42933 | 22851 ft | 457 kts | 178° |
| 2026-04-23 13:41 | -3.31401 | 55.43054 | 22310 ft | 455 kts | 178° |
| 2026-04-23 13:41 | -3.34567 | 55.43175 | 21790 ft | 454 kts | 178° |
| 2026-04-23 13:42 | -3.37718 | 55.43295 | 21258 ft | 452 kts | 178° |
| 2026-04-23 13:42 | -3.40860 | 55.43415 | 20777 ft | 449 kts | 178° |
| 2026-04-23 13:42 | -3.43971 | 55.43533 | 20294 ft | 446 kts | 178° |
| 2026-04-23 13:42 | -3.47086 | 55.43652 | 19759 ft | 444 kts | 178° |
| 2026-04-23 13:43 | -3.50167 | 55.43770 | 19209 ft | 443 kts | 178° |
| 2026-04-23 13:43 | -3.53237 | 55.43887 | 18662 ft | 441 kts | 178° |
| 2026-04-23 13:43 | -3.56331 | 55.44005 | 18101 ft | 439 kts | 178° |
| 2026-04-23 13:43 | -3.59357 | 55.44120 | 17548 ft | 437 kts | 178° |
| 2026-04-23 13:44 | -3.62395 | 55.44236 | 16995 ft | 434 kts | 178° |
| 2026-04-23 13:44 | -3.65423 | 55.44352 | 16437 ft | 432 kts | 178° |
| 2026-04-23 13:44 | -3.68398 | 55.44465 | 15890 ft | 429 kts | 178° |
| 2026-04-23 13:44 | -3.71390 | 55.44580 | 15333 ft | 427 kts | 178° |
| 2026-04-23 13:45 | -3.73356 | 55.44655 | 14964 ft | 425 kts | 178° |
| 2026-04-23 13:45 | -3.77323 | 55.44806 | 14217 ft | 421 kts | 178° |
| 2026-04-23 13:45 | -3.80246 | 55.44918 | 13658 ft | 418 kts | 178° |
| 2026-04-23 13:45 | -3.83144 | 55.45028 | 13113 ft | 413 kts | 178° |
| 2026-04-23 13:46 | -3.85996 | 55.45137 | 12571 ft | 409 kts | 178° |
| 2026-04-23 13:46 | -3.88829 | 55.45245 | 12032 ft | 404 kts | 178° |
| 2026-04-23 13:46 | -3.91608 | 55.45351 | 11498 ft | 400 kts | 178° |
| 2026-04-23 13:46 | -3.93474 | 55.45423 | 11141 ft | 397 kts | 178° |
| 2026-04-23 13:47 | -3.97124 | 55.45562 | 10650 ft | 384 kts | 178° |
| 2026-04-23 13:47 | -3.99756 | 55.45663 | 10551 ft | 367 kts | 178° |
| 2026-04-23 13:47 | -4.02253 | 55.45759 | 10443 ft | 351 kts | 178° |
| 2026-04-23 13:47 | -4.04624 | 55.45849 | 10282 ft | 331 kts | 178° |
| 2026-04-23 13:48 | -4.06884 | 55.45936 | 10159 ft | 312 kts | 178° |
| 2026-04-23 13:48 | -4.08981 | 55.46016 | 10036 ft | 294 kts | 178° |
| 2026-04-23 13:48 | -4.11011 | 55.46093 | 9843 ft | 288 kts | 178° |
| 2026-04-23 13:48 | -4.13029 | 55.46170 | 9416 ft | 291 kts | 178° |
| 2026-04-23 13:49 | -4.15079 | 55.46248 | 9010 ft | 293 kts | 178° |
| 2026-04-23 13:49 | -4.17105 | 55.46325 | 8638 ft | 294 kts | 178° |
| 2026-04-23 13:49 | -4.19144 | 55.46371 | 8272 ft | 294 kts | 181° |
| 2026-04-23 13:49 | -4.21204 | 55.46355 | 7910 ft | 294 kts | 181° |
| 2026-04-23 13:50 | -4.23263 | 55.46342 | 7548 ft | 294 kts | 180° |
| 2026-04-23 13:50 | -4.25297 | 55.46336 | 7196 ft | 294 kts | 180° |
| 2026-04-23 13:50 | -4.27359 | 55.46333 | 6836 ft | 294 kts | 180° |
| 2026-04-23 13:50 | -4.29399 | 55.46331 | 6486 ft | 294 kts | 180° |
| 2026-04-23 13:51 | -4.31450 | 55.46329 | 6229 ft | 290 kts | 180° |
| 2026-04-23 13:51 | -4.33460 | 55.46327 | 5863 ft | 290 kts | 180° |
| 2026-04-23 13:51 | -4.35492 | 55.46325 | 5550 ft | 289 kts | 180° |
| 2026-04-23 13:51 | -4.37489 | 55.46323 | 5283 ft | 285 kts | 179° |
| 2026-04-23 13:52 | -4.39457 | 55.46321 | 5058 ft | 281 kts | 180° |
| 2026-04-23 13:52 | -4.41410 | 55.46320 | 4844 ft | 275 kts | 179° |
| 2026-04-23 13:52 | -4.43298 | 55.46318 | 4685 ft | 268 kts | 179° |
| 2026-04-23 13:52 | -4.45156 | 55.46318 | 4509 ft | 261 kts | 179° |
| 2026-04-23 13:53 | -4.46951 | 55.46318 | 4476 ft | 248 kts | 179° |
| 2026-04-23 13:53 | -4.48665 | 55.46318 | 4292 ft | 243 kts | 179° |
| 2026-04-23 13:53 | -4.50344 | 55.46318 | 4038 ft | 242 kts | 179° |
| 2026-04-23 13:53 | -4.52036 | 55.46318 | 3734 ft | 239 kts | 179° |
| 2026-04-23 13:54 | -4.53704 | 55.46329 | 3413 ft | 237 kts | 178° |
| 2026-04-23 13:54 | -4.55335 | 55.46344 | 3080 ft | 234 kts | 178° |
| 2026-04-23 13:54 | -4.56943 | 55.46357 | 2689 ft | 225 kts | 178° |
| 2026-04-23 13:54 | -4.58456 | 55.46365 | 2293 ft | 210 kts | 178° |
| 2026-04-23 13:55 | -4.59892 | 55.46367 | 1897 ft | 199 kts | 178° |
| 2026-04-23 13:55 | -4.61239 | 55.46370 | 1527 ft | 191 kts | 178° |
| 2026-04-23 13:55 | -4.62533 | 55.46392 | 1231 ft | 179 kts | 170° |
| 2026-04-23 13:55 | -4.63585 | 55.46844 | 996 ft | 156 kts | 137° |
| 2026-04-23 13:56 | -4.64271 | 55.47676 | 818 ft | 153 kts | 123° |
| 2026-04-23 13:56 | -4.64876 | 55.48570 | 686 ft | 155 kts | 126° |
| 2026-04-23 13:56 | -4.65519 | 55.49450 | 477 ft | 155 kts | 126° |
| 2026-04-23 13:56 | -4.66121 | 55.50332 | 255 ft | 153 kts | 126° |
| 2026-04-23 13:57 | -4.66729 | 55.51179 | 94 ft | 148 kts | 126° |
| 2026-04-23 13:57 | -4.67311 | 55.52024 | 26 ft | 141 kts | 127° |
| 2026-04-23 13:57 | -4.67775 | 55.52670 | 21 ft | 81 kts | 124° |
| 2026-04-23 13:57 | -4.67970 | 55.52949 | 21 ft | 24 kts | 125° |
| 2026-04-23 13:58 | -4.68061 | 55.53079 | 22 ft | 18 kts | 125° |
| 2026-04-23 13:58 | -4.68121 | 55.53144 | 22 ft | 11 kts | 159° |
| 2026-04-23 13:58 | -4.68191 | 55.53164 | 22 ft | 8 kts | 166° |
| 2026-04-23 13:58 | -4.68247 | 55.53184 | 22 ft | 8 kts | 144° |
| 2026-04-23 13:59 | -4.68267 | 55.53225 | 21 ft | 6 kts | 72° |
| 2026-04-23 13:59 | -4.68250 | 55.53240 | 22 ft | 4 kts | 17° |
| 2026-04-23 13:59 | -4.68192 | 55.53243 | 22 ft | 8 kts | 339° |
| 2026-04-23 13:59 | -4.68140 | 55.53189 | 22 ft | 12 kts | 307° |
| 2026-04-23 14:00 | -4.68101 | 55.53136 | 22 ft | 15 kts | 305° |
| 2026-04-23 14:00 | -4.68037 | 55.53044 | 22 ft | 15 kts | 304° |
| 2026-04-23 14:00 | -4.67957 | 55.52927 | 21 ft | 16 kts | 304° |
| 2026-04-23 14:00 | -4.67889 | 55.52837 | 21 ft | 16 kts | 306° |
| 2026-04-23 14:01 | -4.67818 | 55.52740 | 21 ft | 17 kts | 306° |
| 2026-04-23 14:01 | -4.67748 | 55.52638 | 21 ft | 17 kts | 303° |
| 2026-04-23 14:01 | -4.67685 | 55.52543 | 21 ft | 15 kts | 303° |
| 2026-04-23 14:01 | -4.67626 | 55.52457 | 21 ft | 14 kts | 306° |
| 2026-04-23 14:02 | -4.67572 | 55.52382 | 21 ft | 12 kts | 306° |
| 2026-04-23 14:02 | -4.67539 | 55.52335 | 21 ft | 11 kts | 305° |
| 2026-04-23 14:02 | -4.67468 | 55.52234 | 22 ft | 17 kts | 305° |
| 2026-04-23 14:02 | -4.67378 | 55.52107 | 23 ft | 26 kts | 305° |
| 2026-04-23 14:03 | -4.67271 | 55.51954 | 25 ft | 26 kts | 305° |
| 2026-04-23 14:03 | -4.67167 | 55.51809 | 26 ft | 25 kts | 306° |
| 2026-04-23 14:03 | -4.67065 | 55.51663 | 26 ft | 25 kts | 306° |
| 2026-04-23 14:03 | -4.66968 | 55.51523 | 26 ft | 24 kts | 304° |
| 2026-04-23 14:04 | -4.66899 | 55.51422 | 26 ft | 9 kts | 302° |
| 2026-04-23 14:04 | -4.66915 | 55.51368 | 26 ft | 10 kts | 215° |
| 2026-04-23 14:04 | -4.66987 | 55.51318 | 26 ft | 11 kts | 216° |
| 2026-04-23 14:04 | -4.67015 | 55.51291 | 27 ft | 7 kts | 227° |
| 2026-04-23 14:05 | -4.67045 | 55.51265 | 27 ft | 6 kts | 217° |
| 2026-04-23 14:05 | -4.67058 | 55.51255 | 27 ft | 2 kts | 216° |
| 2026-04-23 14:05 | -4.67065 | 55.51249 | 27 ft | 1 kts | 216° |
| 2026-04-23 14:05 | -4.67067 | 55.51248 | 27 ft | 0 kts | 216° |